Thursday, December 18, 2014, 8:27 PM EST

KEZF, Fredericksburg, Shannon Airport

Location: Fredericksburg, VA, United States Lat: 38.267
Local Time: 8:27 PM EST ( 1:27 GMT) Lon: -77.45
Time Zone: US/Eastern Elev: 85 ft

Show me the last for .
Show Decoded

2014-12-18 19:55 METAR KEZF 190055Z AUTO 34006KT 10SM SCT120 04/M04 A3012 RMK AO2 T00351042 =
2014-12-18 19:35 METAR KEZF 190035Z AUTO 34005KT 10SM SCT120 04/M04 A3013 RMK AO2 T00361042 =
2014-12-18 19:15 METAR KEZF 190015Z AUTO 34005KT 10SM SCT120 04/M04 A3013 RMK AO2 T00371041 =
2014-12-18 18:55 METAR KEZF 182355Z AUTO 32005KT 10SM CLR 04/M04 A3013 RMK AO2 T00381040 10068
                 20038 =
2014-12-18 18:35 METAR KEZF 182335Z AUTO 35007KT 10SM CLR 04/M04 A3012 RMK AO2 T00381041 =
2014-12-18 18:15 METAR KEZF 182315Z AUTO 33005KT 10SM CLR 04/M04 A3011 RMK AO2 T00401040 =
2014-12-18 17:55 METAR KEZF 182255Z AUTO 35005KT 10SM CLR 04/M04 A3011 RMK AO2 T00401040 =
2014-12-18 17:35 METAR KEZF 182235Z AUTO 34006KT 10SM CLR 04/M04 A3011 RMK AO2 T00411040 =
2014-12-18 17:15 METAR KEZF 182215Z AUTO 36009KT 10SM CLR 05/M04 A3011 RMK AO2 T00451038 =
2014-12-18 16:55 METAR KEZF 182155Z AUTO 34007KT 10SM CLR 05/M04 A3010 RMK AO2 T00451039 =
2014-12-18 16:35 METAR KEZF 182135Z AUTO 34007KT 10SM CLR 05/M04 A3009 RMK AO2 T00501036 =
2014-12-18 16:15 METAR KEZF 182115Z AUTO 35009KT 10SM CLR 05/M04 A3010 RMK AO2 T00501040 =
2014-12-18 15:55 METAR KEZF 182055Z AUTO 36005KT 10SM CLR 06/M04 A3010 RMK AO2 T00571040 =
2014-12-18 15:35 METAR KEZF 182035Z AUTO 34005KT 10SM CLR 06/M04 A3009 RMK AO2 T00641040 =
2014-12-18 15:15 METAR KEZF 182015Z AUTO 31007KT 10SM CLR 06/M04 A3009 RMK AO2 T00641041 =
2014-12-18 14:55 METAR KEZF 181955Z AUTO 34006KT 10SM CLR 06/M04 A3009 RMK AO2 T00601040 =
2014-12-18 14:35 METAR KEZF 181935Z AUTO 33003G08KT 10SM CLR 06/M04 A3009 RMK AO2 T00621041 =
2014-12-18 14:15 METAR KEZF 181915Z AUTO 31007KT 10SM CLR 07/M04 A3009 RMK AO2 T00651040 =
2014-12-18 13:55 METAR KEZF 181855Z AUTO 32010KT 300V360 10SM CLR 07/M04 A3010 RMK AO2 T00671042
                 =
2014-12-18 13:35 METAR KEZF 181835Z AUTO 34006KT 10SM CLR 06/M04 A3010 RMK AO2 T00621042 =
2014-12-18 13:15 METAR KEZF 181815Z AUTO 34007KT 10SM CLR 06/M04 A3011 RMK AO2 T00611045 =
2014-12-18 12:55 METAR KEZF 181755Z AUTO 35008KT 10SM CLR 06/M04 A3011 RMK AO2 T00621045 10062
                 20000 =
2014-12-18 12:35 METAR KEZF 181735Z AUTO 35012G16KT 10SM CLR 06/M04 A3012 RMK AO2 T00581045 =
2014-12-18 11:55 METAR KEZF 181655Z AUTO 36010KT 10SM CLR 06/M05 A3015 RMK AO2 T00571047 =
2014-12-18 11:35 METAR KEZF 181635Z AUTO 33007G14KT 10SM CLR 06/M05 A3016 RMK AO2 T00571046 =
2014-12-18 11:15 METAR KEZF 181615Z AUTO 32010G18KT 10SM CLR 06/M05 A3017 RMK AO2 T00551050 =
2014-12-18 10:55 METAR KEZF 181555Z AUTO 31010G15KT 10SM CLR 05/M05 A3017 RMK AO2 T00521051 =
2014-12-18 10:35 METAR KEZF 181535Z AUTO 32007KT 300V010 10SM CLR 05/M05 A3018 RMK AO2 T00491046
                 =
2014-12-18 10:15 METAR KEZF 181515Z AUTO 34008G15KT 10SM CLR 05/M05 A3019 RMK AO2 T00451047 =
2014-12-18 09:55 METAR KEZF 181455Z AUTO 35006KT 10SM CLR 04/M05 A3018 RMK AO2 T00411048 =
2014-12-18 09:35 METAR KEZF 181435Z AUTO 34009KT 10SM CLR 04/M05 A3019 RMK AO2 T00371048 =
2014-12-18 09:15 METAR KEZF 181415Z AUTO 34006KT 10SM CLR 03/M05 A3018 RMK AO2 T00331046 =
2014-12-18 08:35 METAR KEZF 181335Z AUTO 36004KT 10SM CLR 02/M05 A3017 RMK AO2 T00201047 =
2014-12-18 08:15 METAR KEZF 181315Z AUTO 00000KT 10SM CLR 01/M03 A3017 RMK AO2 T00091035 =
2014-12-18 07:55 METAR KEZF 181255Z AUTO 00000KT 10SM CLR 00/M04 A3017 RMK AO2 T00041045 =
2014-12-18 07:35 METAR KEZF 181235Z AUTO 32004KT 10SM CLR 00/M05 A3016 RMK AO2 T00031051 =
2014-12-18 07:15 METAR KEZF 181215Z AUTO 33003KT 10SM CLR 01/M05 A3017 RMK AO2 T00061051 =
2014-12-18 06:35 METAR KEZF 181135Z AUTO 34005KT 10SM CLR 01/M05 A3015 RMK AO2 T00051046 =
2014-12-18 06:15 METAR KEZF 181115Z AUTO 33006KT 10SM CLR 01/M04 A3015 RMK AO2 T00051044 =
2014-12-18 05:55 METAR KEZF 181055Z AUTO 33006KT 10SM CLR 01/M04 A3014 RMK AO2 T00051042 =
2014-12-18 05:35 METAR KEZF 181035Z AUTO 03003KT 10SM CLR 01/M04 A3014 RMK AO2 T00091041 =
2014-12-18 05:15 METAR KEZF 181015Z AUTO 34005KT 10SM CLR M01/M04 A3013 RMK AO2 T10091037 =
2014-12-18 04:55 METAR KEZF 180955Z AUTO 34003KT 10SM CLR 00/M04 A3012 RMK AO2 T00041036 =
2014-12-18 04:35 METAR KEZF 180935Z AUTO 35006KT 10SM CLR M01/M04 A3012 RMK AO2 T10071037 =
2014-12-18 04:15 METAR KEZF 180915Z AUTO 00000KT 10SM CLR M01/M04 A3012 RMK AO2 T10101039 =
2014-12-18 03:55 METAR KEZF 180855Z AUTO 31005KT 10SM CLR 00/M03 A3011 RMK AO2 T00001031 =
2014-12-18 03:35 METAR KEZF 180835Z AUTO 01003KT 10SM CLR 02/M03 A3011 RMK AO2 T00201035 =
2014-12-18 03:15 METAR KEZF 180815Z AUTO 32004KT 10SM CLR 02/M03 A3011 RMK AO2 T00171033 =
2014-12-18 02:55 METAR KEZF 180755Z AUTO 34004KT 10SM CLR 03/M03 A3011 RMK AO2 T00261033 =
2014-12-18 02:35 METAR KEZF 180735Z AUTO 35006KT 10SM CLR 03/M03 A3010 RMK AO2 T00311031 =
2014-12-18 02:15 METAR KEZF 180715Z AUTO 35008KT 10SM CLR 03/M03 A3010 RMK AO2 T00311030 =
2014-12-18 01:55 METAR KEZF 180655Z AUTO 33007KT 10SM CLR 03/M03 A3009 RMK AO2 T00271032 =
2014-12-18 01:35 METAR KEZF 180635Z AUTO 34004KT 10SM CLR 03/M03 A3009 RMK AO2 T00251032 =
2014-12-18 01:15 METAR KEZF 180615Z AUTO 32004KT 10SM CLR 00/M03 A3008 RMK AO2 T00001028 =
2014-12-18 00:55 METAR KEZF 180555Z AUTO 00000KT 10SM CLR 01/M02 A3008 RMK AO2 T00081024 10082
                 20005 401510005 =
2014-12-18 00:15 METAR KEZF 180515Z AUTO 31003KT 10SM CLR 01/M02 A3008 RMK AO2 T00071025 =
2014-12-17 23:55 METAR KEZF 180455Z AUTO 34003KT 10SM CLR 01/M02 A3007 RMK AO2 T00101020 =
2014-12-17 23:35 METAR KEZF 180435Z AUTO 34003KT 10SM CLR 02/M02 A3006 RMK AO2 T00201019 =
2014-12-17 23:15 METAR KEZF 180415Z AUTO 34004KT 10SM CLR 02/M01 A3006 RMK AO2 T00211014 =
2014-12-17 22:55 METAR KEZF 180355Z AUTO 00000KT 10SM CLR 02/M01 A3006 RMK AO2 T00181014 =
2014-12-17 22:15 METAR KEZF 180315Z AUTO 00000KT 10SM CLR 03/M01 A3005 RMK AO2 T00271015 =
2014-12-17 21:55 METAR KEZF 180255Z AUTO 00000KT 10SM CLR 03/M02 A3005 RMK AO2 T00291021 =
2014-12-17 21:35 METAR KEZF 180235Z AUTO 00000KT 10SM CLR 05/M02 A3005 RMK AO2 T00481020 =
2014-12-17 21:15 METAR KEZF 180215Z AUTO 35003KT 10SM CLR 05/M02 A3005 RMK AO2 T00521017 =
2014-12-17 20:55 METAR KEZF 180155Z AUTO 36005KT 10SM CLR 06/M01 A3005 RMK AO2 T00561015 =
2014-12-17 20:35 METAR KEZF 180135Z AUTO 35004KT 10SM CLR 06/M01 A3005 RMK AO2 T00611013 =

Support USWX by starting your Amazon purchase here.